Time;durP1;ratioP1;P1;durP2;ratioP2;P2;SDS_P1;SDS_P2;PMS_P1;PMS_P2;Temp;Humidity;BMP_temperature;BMP_pressure;BME280_temperature;BME280_humidity;BME280_pressure;Samples;Min_cycle;Max_cycle;Signal;HPM_P1;HPM_P2
2023/03/08 00:00:07;;;;;;;10.23;3.57;;;0.40;99.90;;;;;;4194868;28;20533;-73
2023/03/08 00:02:09;;;;;;;8.07;3.30;;;0.40;99.90;;;;;;4193349;28;20453;-70
2023/03/08 00:04:12;;;;;;;9.77;3.23;;;0.40;99.90;;;;;;4193009;28;20466;-73
2023/03/08 00:06:15;;;;;;;6.53;3.37;;;0.40;99.90;;;;;;4194426;28;20589;-70
2023/03/08 00:08:17;;;;;;;6.73;2.80;;;0.30;99.90;;;;;;4194158;28;20519;-72
2023/03/08 00:10:19;;;;;;;4.77;2.80;;;0.30;99.90;;;;;;4193398;28;20477;-73
2023/03/08 00:12:21;;;;;;;7.70;3.00;;;0.30;99.90;;;;;;4192990;28;20545;-73
2023/03/08 00:14:23;;;;;;;6.43;2.37;;;0.30;99.90;;;;;;4193211;28;20959;-73
2023/03/08 00:16:25;;;;;;;6.63;3.23;;;0.30;99.90;;;;;;4195968;28;21650;-73
2023/03/08 00:18:27;;;;;;;7.77;2.97;;;0.30;99.90;;;;;;4193763;28;20557;-72
2023/03/08 00:20:30;;;;;;;5.00;2.60;;;0.30;99.90;;;;;;4195083;28;20465;-72
2023/03/08 00:22:35;;;;;;;6.80;2.67;;;0.30;99.90;;;;;;4191779;28;20466;-74
2023/03/08 00:24:38;;;;;;;7.27;3.43;;;0.30;99.90;;;;;;4193280;28;20444;-73
2023/03/08 00:26:40;;;;;;;6.23;2.73;;;0.30;99.90;;;;;;4194068;28;20461;-73
2023/03/08 00:28:42;;;;;;;5.50;2.57;;;0.30;99.90;;;;;;4193432;28;20984;-72
2023/03/08 00:30:43;;;;;;;7.47;3.23;;;0.20;99.90;;;;;;4208641;28;20468;-74
2023/03/08 00:32:45;;;;;;;7.37;3.47;;;0.30;99.90;;;;;;4192484;28;20502;-72
2023/03/08 00:34:47;;;;;;;5.73;2.90;;;0.40;99.90;;;;;;4193303;28;20486;-72
2023/03/08 00:36:51;;;;;;;9.37;3.40;;;0.40;99.90;;;;;;4191830;28;21054;-73
2023/03/08 00:38:53;;;;;;;9.40;3.77;;;0.50;99.90;;;;;;4193959;28;20590;-73
2023/03/08 00:40:55;;;;;;;7.20;3.40;;;0.40;99.90;;;;;;4194700;28;20457;-73
2023/03/08 00:42:57;;;;;;;9.03;3.53;;;0.40;99.90;;;;;;4210318;28;20457;-73
2023/03/08 00:44:59;;;;;;;10.03;3.77;;;0.40;99.90;;;;;;4191989;28;20468;-73
2023/03/08 00:47:01;;;;;;;6.13;3.30;;;0.50;99.90;;;;;;4194685;28;20445;-73
2023/03/08 00:49:03;;;;;;;5.63;3.07;;;0.40;99.90;;;;;;4192641;28;20455;-72
2023/03/08 00:51:06;;;;;;;7.10;3.10;;;0.40;99.90;;;;;;4192727;28;20545;-73
2023/03/08 00:53:11;;;;;;;7.00;3.30;;;0.40;99.90;;;;;;4193062;28;20451;-73
2023/03/08 00:55:12;;;;;;;10.53;3.80;;;0.40;99.90;;;;;;4190188;28;20859;-72
2023/03/08 00:57:15;;;;;;;7.50;3.27;;;0.40;99.90;;;;;;4191896;28;20453;-72
2023/03/08 00:59:17;;;;;;;11.20;3.80;;;0.40;99.90;;;;;;4192456;28;20460;-73
2023/03/08 01:01:19;;;;;;;9.20;3.93;;;0.40;99.90;;;;;;4192181;28;20458;-73
2023/03/08 01:03:21;;;;;;;7.63;3.73;;;0.40;99.90;;;;;;4194774;28;21492;-72
2023/03/08 01:05:23;;;;;;;7.83;4.27;;;0.40;99.90;;;;;;4195069;28;20457;-73
2023/03/08 01:07:27;;;;;;;9.87;4.00;;;0.40;99.90;;;;;;4196355;28;20492;-73
2023/03/08 01:09:30;;;;;;;10.67;4.53;;;0.30;99.90;;;;;;4212016;28;20452;-73
2023/03/08 01:11:34;;;;;;;11.07;4.73;;;0.30;99.90;;;;;;4195568;28;20455;-73
2023/03/08 01:13:36;;;;;;;10.93;4.43;;;0.30;99.90;;;;;;4193956;28;20451;-73
2023/03/08 01:15:38;;;;;;;12.97;4.93;;;0.20;99.90;;;;;;4210989;28;20508;-73
2023/03/08 01:17:40;;;;;;;12.40;4.93;;;0.30;99.90;;;;;;4196475;28;20570;-70
2023/03/08 01:19:42;;;;;;;12.27;4.63;;;0.30;99.90;;;;;;4194783;28;20505;-70
2023/03/08 01:21:44;;;;;;;13.37;5.60;;;0.30;99.90;;;;;;4199409;28;21015;-70
2023/03/08 01:23:47;;;;;;;17.90;5.27;;;0.30;99.90;;;;;;4201136;28;20508;-70
2023/03/08 01:25:57;;;;;;;17.53;5.53;;;0.30;99.90;;;;;;4197674;28;20522;-71
2023/03/08 01:28:00;;;;;;;13.17;5.13;;;0.30;99.90;;;;;;4199594;28;20492;-72
2023/03/08 01:30:02;;;;;;;11.17;5.00;;;0.30;99.90;;;;;;4197438;28;20468;-71
2023/03/08 01:32:04;;;;;;;16.00;6.30;;;0.30;99.90;;;;;;4196520;28;20493;-73
2023/03/08 01:34:06;;;;;;;17.93;6.70;;;0.30;99.90;;;;;;4197230;28;20460;-70
2023/03/08 01:36:10;;;;;;;11.87;5.50;;;0.30;99.90;;;;;;4197658;28;20505;-71
2023/03/08 01:38:12;;;;;;;17.70;6.40;;;0.30;99.90;;;;;;4197172;28;20509;-70
2023/03/08 01:40:15;;;;;;;15.33;5.70;;;0.30;99.90;;;;;;4198301;28;20557;-71
2023/03/08 01:42:19;;;;;;;14.80;6.27;;;0.30;99.90;;;;;;4194315;28;20473;-73
2023/03/08 01:44:21;;;;;;;16.13;6.23;;;0.30;99.90;;;;;;4195456;28;21091;-70
2023/03/08 01:46:26;;;;;;;14.93;6.00;;;0.20;99.90;;;;;;4196163;28;20490;-69
2023/03/08 01:48:32;;;;;;;14.20;5.70;;;0.30;99.90;;;;;;4197044;28;21156;-72
2023/03/08 01:50:34;;;;;;;16.63;7.07;;;0.30;99.90;;;;;;4198393;28;20494;-74
2023/03/08 01:52:39;;;;;;;19.43;7.20;;;0.30;99.90;;;;;;4194561;28;20494;-72
2023/03/08 01:54:46;;;;;;;21.67;7.23;;;0.30;99.90;;;;;;4195759;28;20553;-73
2023/03/08 01:56:50;;;;;;;16.90;7.07;;;0.30;99.90;;;;;;4196092;28;20460;-72
2023/03/08 01:58:55;;;;;;;15.37;6.63;;;0.30;99.90;;;;;;4197781;28;20488;-73
2023/03/08 02:00:57;;;;;;;17.53;6.80;;;0.30;99.90;;;;;;4197500;28;20491;-73
2023/03/08 02:03:01;;;;;;;18.37;7.43;;;0.30;99.90;;;;;;4196565;28;20469;-74
2023/03/08 02:05:03;;;;;;;14.60;6.40;;;0.30;99.90;;;;;;4196968;28;20707;-72
2023/03/08 02:07:06;;;;;;;15.73;6.50;;;0.30;99.90;;;;;;4195043;28;20512;-74
2023/03/08 02:09:08;;;;;;;15.07;6.60;;;0.30;99.90;;;;;;4196494;28;20958;-74
2023/03/08 02:11:11;;;;;;;18.07;6.50;;;0.30;99.90;;;;;;4195144;28;21016;-72
2023/03/08 02:13:13;;;;;;;16.83;7.10;;;0.30;99.90;;;;;;4194089;28;20554;-74
2023/03/08 02:15:19;;;;;;;14.90;6.10;;;0.30;99.90;;;;;;4194720;28;20497;-73
2023/03/08 02:17:22;;;;;;;14.23;6.37;;;0.30;99.90;;;;;;4194493;28;20825;-73
2023/03/08 02:19:29;;;;;;;17.10;6.83;;;0.30;99.90;;;;;;4193916;28;21097;-73
2023/03/08 02:21:32;;;;;;;16.37;7.00;;;0.30;99.90;;;;;;4195716;28;21268;-72
2023/03/08 02:23:35;;;;;;;15.57;6.93;;;0.30;99.90;;;;;;4196212;28;20995;-73
2023/03/08 02:25:37;;;;;;;18.27;6.77;;;0.30;99.90;;;;;;4194450;28;20470;-73
2023/03/08 02:27:39;;;;;;;15.93;7.03;;;0.30;99.90;;;;;;4196222;28;20926;-74
2023/03/08 02:29:42;;;;;;;19.30;7.30;;;0.30;99.90;;;;;;4196600;28;20544;-74
2023/03/08 02:31:43;;;;;;;19.10;7.17;;;0.30;99.90;;;;;;4195223;28;20456;-74
2023/03/08 02:33:45;;;;;;;16.73;6.80;;;0.30;99.90;;;;;;4192692;28;20478;-73
2023/03/08 02:35:47;;;;;;;18.67;7.33;;;0.30;99.90;;;;;;4196524;28;20565;-73
2023/03/08 02:37:52;;;;;;;18.40;7.20;;;0.30;99.90;;;;;;4196888;28;20489;-73
2023/03/08 02:39:55;;;;;;;15.80;6.80;;;0.30;99.90;;;;;;4195251;28;21098;-74
2023/03/08 02:41:57;;;;;;;17.13;6.77;;;0.30;99.90;;;;;;4194645;28;20567;-72
2023/03/08 02:43:59;;;;;;;19.10;7.60;;;0.30;99.90;;;;;;4195426;28;20577;-73
2023/03/08 02:46:01;;;;;;;17.70;7.23;;;0.30;99.90;;;;;;4196343;28;20499;-71
2023/03/08 02:48:04;;;;;;;18.37;6.70;;;0.30;99.90;;;;;;4195887;28;21213;-73
2023/03/08 02:50:07;;;;;;;16.83;6.53;;;0.30;99.90;;;;;;4196446;28;20469;-72
2023/03/08 02:52:09;;;;;;;14.47;6.10;;;0.20;99.90;;;;;;4193682;28;20963;-73
2023/03/08 02:54:11;;;;;;;14.17;6.37;;;0.30;99.90;;;;;;4193383;28;20462;-71
2023/03/08 02:56:14;;;;;;;15.83;7.10;;;0.20;99.90;;;;;;4193757;28;20497;-73
2023/03/08 02:58:16;;;;;;;16.40;6.60;;;0.20;99.90;;;;;;4193325;28;21465;-70
2023/03/08 03:00:18;;;;;;;14.50;5.97;;;0.20;99.90;;;;;;4195958;28;21046;-73
2023/03/08 03:02:20;;;;;;;13.80;5.83;;;0.20;99.90;;;;;;4196322;28;20584;-73
2023/03/08 03:04:22;;;;;;;13.60;6.13;;;0.20;99.90;;;;;;4194199;28;20459;-72
2023/03/08 03:06:24;;;;;;;14.27;5.60;;;0.20;99.90;;;;;;4195041;28;20925;-73
2023/03/08 03:08:26;;;;;;;15.27;6.43;;;0.20;99.90;;;;;;4195568;28;20568;-73
2023/03/08 03:10:28;;;;;;;13.03;5.53;;;0.20;99.90;;;;;;4194950;28;20469;-74
2023/03/08 03:12:31;;;;;;;14.97;5.77;;;0.20;99.90;;;;;;4193384;28;20545;-72
2023/03/08 03:14:33;;;;;;;13.77;5.60;;;0.20;99.90;;;;;;4193946;28;20921;-73
2023/03/08 03:16:36;;;;;;;14.67;5.83;;;0.20;99.90;;;;;;4195358;28;20508;-73
2023/03/08 03:18:38;;;;;;;12.73;5.40;;;0.20;99.90;;;;;;4194422;28;20591;-72
2023/03/08 03:20:40;;;;;;;15.40;6.60;;;0.20;99.90;;;;;;4193404;28;20459;-70
2023/03/08 03:22:43;;;;;;;13.57;6.13;;;0.20;99.90;;;;;;4194721;28;20541;-72
2023/03/08 03:24:45;;;;;;;12.43;5.77;;;0.20;99.90;;;;;;4195488;28;20499;-73
2023/03/08 03:26:50;;;;;;;12.80;5.70;;;0.20;99.90;;;;;;4195342;28;20497;-72
2023/03/08 03:28:56;;;;;;;13.63;5.50;;;0.20;99.90;;;;;;4195124;28;20974;-72
2023/03/08 03:30:58;;;;;;;11.00;5.10;;;0.20;99.90;;;;;;4194218;28;20901;-71
2023/03/08 03:33:00;;;;;;;13.97;6.00;;;0.20;99.90;;;;;;4192058;28;20546;-73
2023/03/08 03:35:02;;;;;;;13.43;5.43;;;0.20;99.90;;;;;;4193982;28;20501;-72
2023/03/08 03:37:04;;;;;;;12.03;5.20;;;0.20;99.90;;;;;;4193890;28;20521;-72
2023/03/08 03:39:06;;;;;;;12.70;5.67;;;0.20;99.90;;;;;;4193697;28;20944;-72
2023/03/08 03:41:10;;;;;;;10.07;4.97;;;0.20;99.90;;;;;;4194534;28;20545;-72
2023/03/08 03:43:12;;;;;;;11.23;4.90;;;0.20;99.90;;;;;;4194282;28;20454;-72
2023/03/08 03:45:15;;;;;;;11.00;5.17;;;0.30;99.90;;;;;;4194569;28;20487;-71
2023/03/08 03:47:18;;;;;;;10.47;5.13;;;0.20;99.90;;;;;;4194288;28;20485;-72
2023/03/08 03:49:20;;;;;;;10.30;4.47;;;0.20;99.90;;;;;;4193926;28;20991;-73
2023/03/08 03:51:23;;;;;;;10.13;5.00;;;0.20;99.90;;;;;;4192622;28;20468;-72
2023/03/08 03:53:25;;;;;;;12.43;4.77;;;0.20;99.90;;;;;;4196283;28;20886;-72
2023/03/08 03:55:27;;;;;;;10.90;5.03;;;0.20;99.90;;;;;;4181587;28;20546;-73
2023/03/08 03:57:29;;;;;;;8.23;4.70;;;0.20;99.90;;;;;;4194329;28;20488;-72
2023/03/08 03:59:32;;;;;;;8.83;4.53;;;0.20;99.90;;;;;;4193162;28;20478;-72
2023/03/08 04:01:36;;;;;;;12.57;5.70;;;0.20;99.90;;;;;;4195855;28;20799;-73
2023/03/08 04:03:38;;;;;;;12.90;5.50;;;0.20;99.90;;;;;;4193875;28;20473;-73
2023/03/08 04:05:40;;;;;;;14.90;5.23;;;0.20;99.90;;;;;;4194682;28;20482;-73
2023/03/08 04:07:41;;;;;;;12.47;5.10;;;0.10;99.90;;;;;;4193047;28;20527;-72
2023/03/08 04:09:43;;;;;;;11.33;5.20;;;0.20;99.90;;;;;;4193735;28;20970;-73
2023/03/08 04:11:45;;;;;;;14.20;6.10;;;0.10;99.90;;;;;;4192421;28;21010;-73
2023/03/08 04:13:47;;;;;;;9.53;4.73;;;0.20;99.90;;;;;;4195244;28;20493;-73
2023/03/08 04:15:49;;;;;;;12.90;4.80;;;0.20;99.90;;;;;;4192709;28;20482;-73
2023/03/08 04:17:52;;;;;;;12.23;5.07;;;0.20;99.90;;;;;;4193626;28;20508;-74
2023/03/08 04:19:54;;;;;;;12.03;4.90;;;0.20;99.90;;;;;;4192403;28;20967;-73
2023/03/08 04:21:56;;;;;;;12.70;5.43;;;0.10;99.90;;;;;;4192970;28;20508;-72
2023/03/08 04:23:58;;;;;;;12.97;6.03;;;0.20;99.90;;;;;;4194529;28;20545;-72
2023/03/08 04:26:01;;;;;;;10.87;5.90;;;0.20;99.90;;;;;;4192825;28;20925;-73
2023/03/08 04:28:03;;;;;;;12.70;6.90;;;0.20;99.90;;;;;;4191796;28;20469;-72
2023/03/08 04:30:07;;;;;;;13.53;6.30;;;0.20;99.90;;;;;;4195409;28;20461;-72
2023/03/08 04:32:08;;;;;;;13.80;6.07;;;0.20;99.90;;;;;;4193607;28;20460;-71
2023/03/08 04:34:12;;;;;;;13.43;6.10;;;0.20;99.90;;;;;;4209355;28;20455;-73
2023/03/08 04:36:14;;;;;;;13.17;5.93;;;0.10;99.90;;;;;;4192314;28;20507;-71
2023/03/08 04:38:17;;;;;;;11.20;6.00;;;0.10;99.90;;;;;;4197020;28;20555;-71
2023/03/08 04:40:19;;;;;;;12.83;5.70;;;0.20;99.90;;;;;;4194684;28;20450;-70
2023/03/08 04:42:21;;;;;;;11.80;5.20;;;0.10;99.90;;;;;;4209536;28;20536;-70
2023/03/08 04:44:23;;;;;;;11.97;5.40;;;0.20;99.90;;;;;;4191105;28;20546;-69
2023/03/08 04:46:26;;;;;;;9.63;4.70;;;0.10;99.90;;;;;;4194677;28;20465;-69
2023/03/08 04:48:28;;;;;;;8.27;4.77;;;0.20;99.90;;;;;;4197026;28;21071;-70
2023/03/08 04:50:31;;;;;;;11.63;4.77;;;0.10;99.90;;;;;;4195041;28;20554;-69
2023/03/08 04:52:33;;;;;;;13.27;5.67;;;0.20;99.90;;;;;;4193163;28;20879;-69
2023/03/08 04:54:35;;;;;;;14.70;6.20;;;0.20;99.90;;;;;;4188793;28;20809;-70
2023/03/08 04:56:37;;;;;;;10.13;4.83;;;0.20;99.90;;;;;;4195556;28;20478;-70
2023/03/08 04:58:39;;;;;;;12.47;5.03;;;0.20;99.90;;;;;;4194382;28;20572;-70
2023/03/08 05:00:41;;;;;;;7.57;4.13;;;0.20;99.90;;;;;;4192532;28;20465;-71
2023/03/08 05:02:42;;;;;;;9.77;4.30;;;0.20;99.90;;;;;;4192606;28;20491;-71
2023/03/08 05:04:44;;;;;;;7.97;4.33;;;0.20;99.90;;;;;;4195276;28;20478;-73
2023/03/08 05:06:48;;;;;;;11.07;4.77;;;0.20;99.90;;;;;;4204971;28;20484;-70
2023/03/08 05:08:50;;;;;;;8.87;4.30;;;0.20;99.90;;;;;;4193961;28;20581;-70
2023/03/08 05:10:57;;;;;;;7.30;3.80;;;0.20;99.90;;;;;;4194245;28;20457;-69
2023/03/08 05:12:59;;;;;;;10.57;4.63;;;0.20;99.90;;;;;;4193268;28;20557;-70
2023/03/08 05:15:01;;;;;;;11.03;4.67;;;0.20;99.90;;;;;;4194012;28;20902;-71
2023/03/08 05:17:03;;;;;;;8.93;4.50;;;0.20;99.90;;;;;;4194346;28;21345;-71
2023/03/08 05:19:05;;;;;;;9.57;4.63;;;0.20;99.90;;;;;;4193073;28;20485;-72
2023/03/08 05:21:10;;;;;;;13.63;5.23;;;0.20;99.90;;;;;;4196738;28;20985;-71
2023/03/08 05:23:13;;;;;;;9.93;5.20;;;0.20;99.90;;;;;;4191121;28;20458;-72
2023/03/08 05:25:15;;;;;;;13.43;5.17;;;0.20;99.90;;;;;;4192620;28;20495;-69
2023/03/08 05:27:17;;;;;;;12.27;5.07;;;0.20;99.90;;;;;;4193408;28;21338;-69
2023/03/08 05:29:19;;;;;;;11.90;5.30;;;0.20;99.90;;;;;;4191983;28;20488;-69
2023/03/08 05:31:22;;;;;;;12.73;5.10;;;0.20;99.90;;;;;;4194437;28;20458;-69
2023/03/08 05:33:24;;;;;;;11.93;5.40;;;0.20;99.90;;;;;;4196388;28;20531;-73
2023/03/08 05:35:26;;;;;;;13.33;5.80;;;0.20;99.90;;;;;;4209546;28;21291;-71
2023/03/08 05:37:34;;;;;;;14.87;6.50;;;0.20;99.90;;;;;;4192001;28;20482;-72
2023/03/08 05:39:37;;;;;;;13.17;5.27;;;0.20;99.90;;;;;;4191886;28;20879;-71
2023/03/08 05:41:39;;;;;;;18.27;6.40;;;0.20;99.90;;;;;;4189785;28;20475;-76
2023/03/08 05:43:42;;;;;;;16.63;6.40;;;0.20;99.90;;;;;;4192830;28;20444;-72
2023/03/08 05:45:44;;;;;;;14.67;5.23;;;0.30;99.90;;;;;;4188292;28;20560;-75
2023/03/08 05:47:46;;;;;;;15.03;5.67;;;0.40;99.90;;;;;;4209470;28;20528;-72
2023/03/08 05:49:48;;;;;;;15.90;6.50;;;0.20;99.90;;;;;;4194211;28;20505;-71
2023/03/08 05:51:50;;;;;;;20.47;6.60;;;0.30;99.90;;;;;;4193174;28;20531;-71
2023/03/08 05:53:51;;;;;;;14.70;6.40;;;0.30;99.90;;;;;;4194387;28;20458;-71
2023/03/08 05:55:55;;;;;;;20.97;8.27;;;0.30;99.90;;;;;;4195162;28;20513;-71
2023/03/08 05:57:57;;;;;;;19.33;7.47;;;0.30;99.90;;;;;;4194065;28;20501;-68
2023/03/08 05:59:58;;;;;;;20.23;8.37;;;0.30;99.90;;;;;;4195474;28;20789;-70
2023/03/08 06:02:00;;;;;;;14.77;7.13;;;0.20;99.90;;;;;;4194971;28;20465;-70
2023/03/08 06:04:02;;;;;;;14.27;6.90;;;0.30;99.90;;;;;;4196021;28;21191;-69
2023/03/08 06:06:06;;;;;;;14.60;6.63;;;0.30;99.90;;;;;;4194191;28;20509;-71
2023/03/08 06:08:07;;;;;;;13.00;6.07;;;0.30;99.90;;;;;;4196054;28;20522;-72
2023/03/08 06:10:10;;;;;;;13.00;6.17;;;0.30;99.90;;;;;;4199052;28;20459;-71
2023/03/08 06:12:13;;;;;;;13.83;6.43;;;0.30;99.90;;;;;;4194764;28;20455;-71
2023/03/08 06:14:15;;;;;;;11.90;5.53;;;0.30;99.90;;;;;;4196444;28;20824;-71
2023/03/08 06:16:17;;;;;;;14.83;6.37;;;0.40;99.90;;;;;;4195197;28;20829;-71
2023/03/08 06:18:19;;;;;;;13.10;6.17;;;0.40;99.90;;;;;;4193177;28;20896;-71
2023/03/08 06:20:21;;;;;;;15.00;6.90;;;0.40;99.90;;;;;;4194807;28;20921;-71
2023/03/08 06:22:23;;;;;;;16.60;6.17;;;0.50;99.90;;;;;;4194007;28;20493;-70
2023/03/08 06:24:25;;;;;;;13.57;6.13;;;0.40;99.90;;;;;;4191761;28;20459;-69
2023/03/08 06:26:27;;;;;;;14.70;6.33;;;0.40;99.90;;;;;;4188721;28;20507;-69
2023/03/08 06:28:31;;;;;;;17.97;7.43;;;0.40;99.90;;;;;;4194504;28;20478;-72
2023/03/08 06:30:33;;;;;;;17.43;7.30;;;0.40;99.90;;;;;;4194564;28;20497;-71
2023/03/08 06:32:36;;;;;;;18.33;7.93;;;0.40;99.90;;;;;;4192752;28;20829;-70
2023/03/08 06:34:38;;;;;;;15.97;6.87;;;0.40;99.90;;;;;;4192213;28;20463;-71
2023/03/08 06:36:40;;;;;;;21.80;7.93;;;0.40;99.90;;;;;;4208929;28;20449;-71
2023/03/08 06:38:42;;;;;;;14.43;6.90;;;0.40;99.90;;;;;;4196709;28;20474;-71
2023/03/08 06:40:44;;;;;;;17.10;6.50;;;0.40;99.90;;;;;;4195289;28;20458;-72
2023/03/08 06:42:46;;;;;;;17.53;8.00;;;0.50;99.90;;;;;;4194629;28;20501;-71
2023/03/08 06:44:49;;;;;;;21.33;8.40;;;0.50;99.90;;;;;;4198008;28;20530;-72
2023/03/08 06:46:51;;;;;;;20.67;8.47;;;0.50;99.90;;;;;;4192953;28;20457;-72
2023/03/08 06:48:54;;;;;;;24.87;7.40;;;0.50;99.90;;;;;;4195358;28;20480;-72
2023/03/08 06:50:56;;;;;;;20.57;7.93;;;0.50;99.90;;;;;;4195665;28;20454;-72
2023/03/08 06:52:58;;;;;;;18.20;7.30;;;0.50;99.90;;;;;;4206658;28;20467;-71
2023/03/08 06:55:00;;;;;;;17.07;7.27;;;0.50;99.90;;;;;;4191692;28;20490;-71
2023/03/08 06:57:02;;;;;;;17.63;7.63;;;0.60;99.90;;;;;;4194372;28;20483;-71
2023/03/08 06:59:04;;;;;;;18.50;7.40;;;0.60;99.90;;;;;;4192314;28;20498;-71
2023/03/08 07:01:08;;;;;;;16.63;7.87;;;0.60;99.90;;;;;;4189863;28;20727;-72
2023/03/08 07:03:11;;;;;;;16.93;7.27;;;0.70;99.90;;;;;;4193862;28;20495;-71
2023/03/08 07:05:13;;;;;;;19.67;7.93;;;0.80;99.90;;;;;;4193239;28;20537;-71
2023/03/08 07:07:15;;;;;;;16.90;7.73;;;0.80;99.90;;;;;;4193634;28;20987;-71
2023/03/08 07:09:16;;;;;;;18.93;7.80;;;0.80;99.90;;;;;;4194005;28;21558;-70
2023/03/08 07:11:18;;;;;;;19.00;7.90;;;0.80;99.90;;;;;;4192372;28;20455;-71
2023/03/08 07:13:22;;;;;;;16.80;7.30;;;0.90;99.90;;;;;;4192670;28;21053;-71
2023/03/08 07:15:25;;;;;;;16.83;7.20;;;0.90;99.90;;;;;;4189876;28;20465;-70
2023/03/08 07:17:28;;;;;;;17.03;7.80;;;1.00;99.90;;;;;;4190138;28;20573;-68
2023/03/08 07:19:31;;;;;;;20.67;8.50;;;1.00;99.90;;;;;;4178314;28;20449;-71
2023/03/08 07:21:33;;;;;;;20.87;8.20;;;1.00;99.90;;;;;;4191785;28;20463;-70
2023/03/08 07:23:35;;;;;;;17.63;7.40;;;1.10;99.90;;;;;;4192031;28;20526;-69
2023/03/08 07:25:39;;;;;;;20.00;8.33;;;1.10;99.90;;;;;;4193134;28;20483;-68
2023/03/08 07:27:41;;;;;;;18.77;8.23;;;1.10;99.90;;;;;;4192788;28;20491;-71
2023/03/08 07:29:43;;;;;;;20.93;8.30;;;1.20;99.90;;;;;;4191729;28;20557;-71
2023/03/08 07:31:45;;;;;;;17.30;7.23;;;1.20;99.90;;;;;;4193253;28;20494;-71
2023/03/08 07:33:48;;;;;;;15.07;7.30;;;1.20;99.90;;;;;;4191620;28;20464;-71
2023/03/08 07:35:50;;;;;;;20.40;8.40;;;1.30;99.90;;;;;;4194304;28;20486;-72
2023/03/08 07:37:52;;;;;;;18.50;7.70;;;1.30;99.90;;;;;;4194395;28;20541;-71
2023/03/08 07:39:54;;;;;;;26.83;10.20;;;1.40;99.90;;;;;;4193505;28;20960;-71
2023/03/08 07:41:55;;;;;;;20.17;8.57;;;1.40;99.90;;;;;;4192809;28;20462;-69
2023/03/08 07:43:57;;;;;;;19.63;8.30;;;1.50;99.90;;;;;;4190646;28;20562;-71
2023/03/08 07:46:01;;;;;;;18.97;8.33;;;1.50;99.90;;;;;;4191119;28;20483;-71
2023/03/08 07:48:03;;;;;;;16.43;7.73;;;1.50;99.90;;;;;;4194256;28;21024;-72
2023/03/08 07:50:08;;;;;;;16.43;7.60;;;1.50;99.90;;;;;;4209041;28;20466;-72
2023/03/08 07:52:09;;;;;;;15.13;7.40;;;1.60;99.90;;;;;;4206734;28;20531;-71
2023/03/08 07:54:12;;;;;;;17.20;7.77;;;1.60;99.90;;;;;;4194553;28;20888;-73
2023/03/08 07:56:14;;;;;;;19.43;9.20;;;1.60;99.90;;;;;;4196347;28;21125;-71
2023/03/08 07:58:16;;;;;;;20.07;8.70;;;1.60;99.90;;;;;;4192541;28;20523;-71
2023/03/08 08:00:19;;;;;;;16.57;8.17;;;1.60;99.90;;;;;;4192414;28;21245;-71
2023/03/08 08:02:21;;;;;;;17.10;7.97;;;1.70;99.90;;;;;;4191022;28;20546;-72
2023/03/08 08:04:23;;;;;;;16.00;7.43;;;1.70;99.90;;;;;;4193191;28;20448;-73
2023/03/08 08:06:27;;;;;;;17.43;7.43;;;1.70;99.90;;;;;;4192981;28;20495;-71
2023/03/08 08:08:28;;;;;;;15.77;7.00;;;1.80;99.90;;;;;;4192513;28;20841;-71
2023/03/08 08:10:30;;;;;;;14.60;7.47;;;1.80;99.90;;;;;;4193504;28;20575;-71
2023/03/08 08:12:33;;;;;;;14.93;7.07;;;1.80;99.90;;;;;;4192190;28;20539;-72
2023/03/08 08:14:35;;;;;;;17.23;7.40;;;1.80;99.90;;;;;;4194057;28;20802;-71
2023/03/08 08:16:37;;;;;;;18.73;8.03;;;1.90;99.90;;;;;;4209717;28;20478;-72
2023/03/08 08:18:39;;;;;;;15.83;7.47;;;1.90;99.90;;;;;;4190270;28;20561;-71
2023/03/08 08:20:41;;;;;;;16.77;7.77;;;1.90;99.90;;;;;;4192800;28;20467;-71
2023/03/08 08:22:44;;;;;;;14.87;6.87;;;2.00;99.90;;;;;;4193229;28;20487;-72
2023/03/08 08:24:48;;;;;;;14.87;7.30;;;2.10;99.90;;;;;;4193013;28;20547;-73
2023/03/08 08:26:50;;;;;;;18.03;7.57;;;2.10;99.90;;;;;;4190913;28;20539;-71
2023/03/08 08:28:54;;;;;;;14.57;7.07;;;2.10;99.90;;;;;;4193910;28;20513;-72
2023/03/08 08:30:57;;;;;;;14.53;7.43;;;2.20;99.90;;;;;;4196602;28;20456;-72
2023/03/08 08:33:00;;;;;;;16.20;7.83;;;2.20;99.90;;;;;;4192762;28;20460;-71
2023/03/08 08:35:02;;;;;;;18.43;8.00;;;2.30;99.90;;;;;;4192984;28;20494;-72
2023/03/08 08:37:04;;;;;;;18.57;7.80;;;2.30;99.90;;;;;;4194060;28;20479;-72
2023/03/08 08:39:07;;;;;;;16.63;7.20;;;2.30;99.90;;;;;;4192614;28;20496;-73
2023/03/08 08:41:10;;;;;;;16.40;7.60;;;2.30;99.90;;;;;;4193674;28;20478;-72
2023/03/08 08:43:12;;;;;;;16.80;7.60;;;2.40;99.90;;;;;;4193485;28;20463;-72
2023/03/08 08:45:14;;;;;;;16.13;7.70;;;2.40;99.90;;;;;;4191380;28;20514;-72
2023/03/08 08:47:16;;;;;;;16.70;7.93;;;2.40;99.90;;;;;;4192622;28;20463;-72
2023/03/08 08:49:18;;;;;;;17.07;8.27;;;2.40;99.90;;;;;;4192077;28;20440;-72
2023/03/08 08:51:20;;;;;;;14.70;6.53;;;2.50;99.90;;;;;;4192521;28;20583;-72
2023/03/08 08:53:22;;;;;;;14.60;6.57;;;2.50;99.90;;;;;;4192046;28;20510;-72
2023/03/08 08:55:26;;;;;;;14.70;6.90;;;2.60;99.90;;;;;;4192019;28;20559;-71
2023/03/08 08:57:28;;;;;;;12.33;5.77;;;2.60;99.90;;;;;;4191409;28;20484;-72
2023/03/08 08:59:30;;;;;;;13.53;6.87;;;2.70;99.90;;;;;;4191817;28;20550;-73
2023/03/08 09:01:34;;;;;;;12.87;6.27;;;2.70;99.90;;;;;;4193111;28;20484;-72
2023/03/08 09:03:36;;;;;;;13.47;6.53;;;2.70;99.90;;;;;;4184761;28;20453;-71
2023/03/08 09:05:40;;;;;;;15.97;7.13;;;2.80;99.90;;;;;;4193276;28;20487;-74
2023/03/08 09:07:42;;;;;;;13.50;6.60;;;2.80;99.90;;;;;;4192486;28;21080;-72
2023/03/08 09:09:45;;;;;;;12.80;5.93;;;2.80;99.90;;;;;;4192678;28;20957;-73
2023/03/08 09:11:48;;;;;;;14.57;6.97;;;2.90;99.90;;;;;;4207434;28;20899;-73
2023/03/08 09:13:50;;;;;;;18.87;8.00;;;2.90;99.90;;;;;;4193818;28;20842;-72
2023/03/08 09:15:52;;;;;;;17.53;7.47;;;2.90;99.90;;;;;;4194453;28;20474;-72
2023/03/08 09:17:54;;;;;;;17.53;7.60;;;3.00;99.90;;;;;;4196135;28;20871;-74
2023/03/08 09:19:56;;;;;;;15.60;7.90;;;3.00;99.90;;;;;;4192264;28;20460;-74
2023/03/08 09:21:58;;;;;;;15.63;8.17;;;3.00;99.90;;;;;;4194651;28;20448;-73
2023/03/08 09:24:02;;;;;;;13.83;7.00;;;3.00;99.90;;;;;;4214597;28;21032;-73
2023/03/08 09:26:05;;;;;;;15.43;7.43;;;3.00;99.90;;;;;;4195154;28;20454;-72
2023/03/08 09:28:09;;;;;;;17.87;8.20;;;3.00;99.90;;;;;;4195273;28;20509;-73
2023/03/08 09:30:13;;;;;;;12.03;6.70;;;3.00;99.90;;;;;;4195483;28;20451;-73
2023/03/08 09:32:15;;;;;;;13.63;7.60;;;3.00;99.90;;;;;;4194600;28;20546;-73
2023/03/08 09:34:16;;;;;;;16.33;8.07;;;3.00;99.90;;;;;;4193685;28;20468;-72
2023/03/08 09:36:19;;;;;;;16.17;7.97;;;3.00;99.90;;;;;;4194563;28;21197;-72
2023/03/08 09:38:21;;;;;;;17.67;8.40;;;3.00;99.90;;;;;;4191776;28;20480;-72
2023/03/08 09:40:26;;;;;;;14.27;7.33;;;3.00;99.90;;;;;;4196311;28;20537;-71
2023/03/08 09:42:33;;;;;;;16.60;7.83;;;3.00;99.90;;;;;;4193776;28;20516;-72
2023/03/08 09:45:04;;;;;;;15.27;7.70;;;3.00;99.90;;;;;;4195648;28;20487;-72
2023/03/08 09:47:16;;;;;;;14.97;7.13;;;3.00;99.90;;;;;;4167397;28;20908;-72
2023/03/08 09:49:22;;;;;;;16.10;8.10;;;3.00;99.90;;;;;;4194747;28;20452;-72
2023/03/08 09:51:26;;;;;;;17.37;7.73;;;2.90;99.90;;;;;;4195979;28;20459;-72
2023/03/08 09:53:32;;;;;;;13.93;7.10;;;2.90;99.90;;;;;;4194009;28;20436;-72
2023/03/08 09:55:36;;;;;;;13.30;6.97;;;2.90;99.90;;;;;;4196017;28;21207;-72
2023/03/08 09:57:44;;;;;;;13.80;6.83;;;2.90;99.90;;;;;;4196395;28;20474;-72
2023/03/08 09:59:52;;;;;;;11.60;6.27;;;2.80;99.90;;;;;;4196674;28;20451;-73
2023/03/08 10:02:02;;;;;;;12.33;6.60;;;2.80;99.90;;;;;;4210728;28;20554;-71
2023/03/08 10:04:34;;;;;;;14.83;6.37;;;2.80;99.90;;;;;;4194206;28;20510;-73
2023/03/08 10:06:43;;;;;;;13.27;6.43;;;2.80;99.90;;;;;;4177007;28;21258;-73
2023/03/08 10:08:53;;;;;;;14.17;7.47;;;2.80;99.90;;;;;;4192932;28;20472;-73
2023/03/08 10:11:00;;;;;;;14.20;6.80;;;2.70;99.90;;;;;;4191209;28;20463;-70
2023/03/08 10:13:23;;;;;;;12.57;6.73;;;2.80;99.90;;;;;;4192310;28;21242;-73
2023/03/08 10:15:28;;;;;;;15.03;7.13;;;2.70;99.90;;;;;;4209293;28;20489;-73
2023/03/08 10:17:39;;;;;;;13.40;7.07;;;2.70;99.90;;;;;;4195333;28;21049;-72
2023/03/08 10:19:45;;;;;;;14.87;7.77;;;2.70;99.90;;;;;;4210225;28;20478;-72
2023/03/08 10:21:47;;;;;;;15.90;7.60;;;2.70;99.90;;;;;;4196294;28;20487;-71
2023/03/08 10:23:58;;;;;;;15.27;7.43;;;2.70;99.90;;;;;;4194277;28;20535;-71
2023/03/08 10:26:01;;;;;;;16.20;8.23;;;2.70;99.90;;;;;;4210365;28;20451;-77
2023/03/08 10:28:12;;;;;;;16.90;8.63;;;2.70;99.90;;;;;;4210437;28;20501;-71
2023/03/08 10:30:18;;;;;;;16.37;8.40;;;2.80;99.90;;;;;;4196099;28;20937;-76
2023/03/08 10:32:20;;;;;;;15.93;8.23;;;2.80;99.90;;;;;;4189062;28;21012;-76
2023/03/08 10:34:31;;;;;;;15.97;8.13;;;2.70;99.90;;;;;;4210125;28;20450;-76
2023/03/08 10:36:33;;;;;;;18.63;9.53;;;2.80;99.90;;;;;;4184751;28;20505;-72
2023/03/08 10:38:39;;;;;;;20.20;9.67;;;2.80;99.90;;;;;;4195952;28;20564;-75
2023/03/08 10:40:41;;;;;;;17.70;8.43;;;2.80;99.90;;;;;;4195896;28;20443;-75